Flight Track Log - Related Links

Times and Time Zones

All times are in EDT time to prevent confusion due to time zone crossing. See the N2863W flight status page for this flight to view local times or setup timezone preferences in your user account.

Time Position Orientation Groundspeed Altitude Reporting Facility
EDT Latitude Longitude Course Direction KTS MPH feet Rate Location/Type
Mon 10:35:00 AM 31.4890 -84.3480 250° West  Level FlightAware Approximate
Mon 10:35:39 AM 31.5147 -84.1939 262° West 165 190 1,100  Level Jacksonville Center
Mon 10:36:00 AM 31.4823 -84.3913 262° West  Level FlightAware Approximate
Mon 10:36:40 AM 31.4897 -84.1936 179° South 128 147 2,000  Level Jacksonville Center
Mon 10:37:00 AM 31.4756 -84.4450 262° West  Level FlightAware Approximate
Mon 10:37:40 AM 31.4583 -84.1883 172° South 111 128 2,700  Level Jacksonville Center
Mon 10:38:40 AM 31.4414 -84.2050 220° Southwest 92 106 3,400 706 Climbing Jacksonville Center
Mon 10:39:39 AM 31.4453 -84.2417 277° West 80 92 4,100 700 Climbing Jacksonville Center
Mon 10:40:40 AM 31.4408 -84.2781 262° West 99 114 4,800 700 Climbing Jacksonville Center
Mon 10:41:39 AM 31.4342 -84.3144 258° West 107 123 5,500 600 Climbing Jacksonville Center
Mon 10:42:40 AM 31.4294 -84.3486 261° West 107 123 6,000 248 Climbing Jacksonville Center
Mon 10:43:40 AM 31.4269 -84.3922 266° West 114 131 6,000  Level Jacksonville Center
Mon 10:44:40 AM 31.4200 -84.4433 261° West 140 161 6,000  Level Jacksonville Center
Mon 10:45:40 AM 31.4153 -84.4944 264° West 155 178 6,000  Level Jacksonville Center
Mon 10:46:40 AM 31.4167 -84.5431 272° West 160 184 6,000  Level Jacksonville Center
Mon 10:47:39 AM 31.4244 -84.5894 281° West 160 184 6,000  Level Jacksonville Center
Mon 10:48:24 AM 31.4303 -84.6286 280° West 156 180 6,000  Level Jacksonville Center
Mon 10:48:39 AM 31.4342 -84.6408 290° West 160 184 6,000  Level Jacksonville Center
Mon 10:49:40 AM 31.4397 -84.6919 277° West 160 184 6,000  Level Jacksonville Center
Mon 10:50:31 AM 31.4433 -84.7358 276° West 155 178 6,000  Level Jacksonville Center
Mon 10:51:38 AM 31.4486 -84.7919 276° West 155 178 6,000  Level Jacksonville Center
Mon 10:52:33 AM 31.4439 -84.8358 263° West 154 177 6,000  Level Jacksonville Center
Mon 10:53:39 AM 31.4408 -84.8917 266° West 160 184 6,000  Level Jacksonville Center
Mon 10:54:34 AM 31.4339 -84.9378 260° West 154 177 6,000  Level Jacksonville Center
Mon 10:55:34 AM 31.4331 -84.9889 269° West 153 176 6,000  Level Jacksonville Center
Mon 10:56:35 AM 31.4281 -85.0375 263° West 154 177 6,000  Level Jacksonville Center
Mon 10:57:36 AM 31.4378 -85.0889 283° West 154 177 6,000  Level Jacksonville Center
Mon 10:58:42 AM 31.4533 -85.1428 289° West 157 181 6,000  Level Jacksonville Center
Mon 10:59:49 AM 31.4714 -85.1919 293° West 157 181 6,000  Level Jacksonville Center
Mon 11:00:50 AM 31.4892 -85.2411 293° West 156 180 6,000  Level Jacksonville Center
Mon 11:01:50 AM 31.5072 -85.2856 295° West 155 178 6,000  Level Jacksonville Center
Mon 11:02:51 AM 31.5208 -85.3322 289° West 154 177 6,000  Level Jacksonville Center
Mon 11:03:52 AM 31.5622 -85.3550 335° Northwest 169 194 6,000 149 Level Jacksonville Center
Mon 11:04:52 AM 31.6064 -85.3442 12° North 167 192 6,300 347 Climbing Jacksonville Center
Mon 11:05:53 AM 31.6503 -85.3381 North 157 181 6,700 344 Climbing Jacksonville Center
Mon 11:06:54 AM 31.6900 -85.3342 North 153 176 7,000 98 Climbing Jacksonville Center
Mon 11:08:00 AM 31.7362 -85.3178 17° North  Level FlightAware Approximate
Mon 11:08:57 AM 31.7833 -85.3333 17° North 171 197 7,000  Level Atlanta TRACON
Mon 11:09:57 AM 31.8333 -85.3167 16° North 170 196 7,000  Level Atlanta TRACON
Mon 11:10:57 AM 31.8833 -85.3167 360° North 168 193 7,000  Level Atlanta TRACON
Mon 11:11:57 AM 31.9333 -85.3167 360° North 168 193 7,000  Level Atlanta TRACON
Mon 11:12:57 AM 31.9833 -85.3000 16° North 171 197 7,000  Level Atlanta TRACON
Mon 11:13:51 AM 32.0167 -85.3000 360° North 170 196 7,000  Level Atlanta TRACON
Mon 11:14:57 AM 32.0667 -85.3000 360° North 171 197 7,000  Level Atlanta TRACON
Mon 11:16:00 AM 32.1110 -85.2854 16° North  Level FlightAware Approximate
Mon 11:16:57 AM 32.1667 -85.2833 16° North 171 197 7,000  Level Atlanta TRACON
Mon 11:17:57 AM 32.2167 -85.2833 360° North 170 196 7,000  Level Atlanta TRACON
Mon 11:18:57 AM 32.2667 -85.2667 16° North 172 198 7,000 250 Level Atlanta TRACON
Mon 11:19:57 AM 32.3000 -85.2667 360° North 158 182 7,500 500 Climbing Atlanta TRACON
Mon 11:20:57 AM 32.3500 -85.2667 360° North 140 161 8,000 250 Climbing Atlanta TRACON
Mon 11:21:57 AM 32.3833 -85.2667 360° North 160 184 8,000  Level Atlanta TRACON
Mon 11:22:57 AM 32.4333 -85.2667 360° North 167 192 8,000  Level Atlanta TRACON
Mon 11:23:57 AM 32.4833 -85.2500 16° North 172 198 8,000  Level Atlanta TRACON
Mon 11:25:00 AM 32.5288 -85.2573 352° North  Level FlightAware Approximate
Mon 11:26:57 AM 32.6167 -85.2500 352° North 172 198 8,000  Level Atlanta TRACON
Mon 11:28:00 AM 32.6623 -85.2439 North  Level Estimated
Mon 11:30:57 AM 32.8167 -85.2333 North 173 199 8,000  Level Atlanta TRACON
Mon 11:32:00 AM 32.8320 -85.3065 352° North  Level FlightAware Approximate
Mon 11:33:07 AM 32.9183 -85.2167 North 182 209 8,000  Level Atlanta Center
Mon 11:34:07 AM 32.9619 -85.2247 351° North 171 197 8,000  Level Atlanta Center
Mon 11:35:00 AM 32.9663 -85.2027 North  Level Estimated
Mon 11:35:07 AM 33.0056 -85.2403 343° North 166 191 8,000  Level Atlanta Center
Mon 11:36:00 AM 33.0097 -85.1968 North  Level Estimated
Mon 11:36:07 AM 33.0494 -85.2556 344° North 161 185 8,000  Level Atlanta Center
Mon 11:37:07 AM 33.0950 -85.2686 346° North 167 192 8,000  Level Atlanta Center
Mon 11:38:07 AM 33.1408 -85.2792 349° North 167 192 8,000  Level Atlanta Center
Mon 11:39:07 AM 33.1867 -85.2972 342° North 167 192 8,000  Level Atlanta Center
Mon 11:40:07 AM 33.2303 -85.3103 346° North 161 185 8,000  Level Atlanta Center
Mon 11:41:07 AM 33.2742 -85.3233 346° North 161 185 8,000  Level Atlanta Center
Mon 11:42:07 AM 33.3158 -85.3364 345° North 167 192 8,000  Level Atlanta Center
Mon 11:43:07 AM 33.3594 -85.3494 346° North 162 186 8,000  Level Atlanta Center
Mon 11:44:07 AM 33.4011 -85.3600 348° North 162 186 8,000  Level Atlanta Center
Mon 11:45:07 AM 33.4489 -85.3733 347° North 162 186 8,000  Level Atlanta Center
Mon 11:46:07 AM 33.4947 -85.3889 344° North 162 186 8,000  Level Atlanta Center
Mon 11:47:07 AM 33.5383 -85.4019 346° North 162 186 8,000  Level Atlanta Center
Mon 11:48:07 AM 33.5861 -85.4178 345° North 162 186 8,000  Level Atlanta Center
Mon 11:49:07 AM 33.6322 -85.4136 North 167 192 8,000  Level Atlanta Center
Mon 11:50:07 AM 33.6825 -85.3994 13° North 162 186 8,000  Level Atlanta Center
Mon 11:51:07 AM 33.7325 -85.3903 North 162 186 8,000  Level Atlanta Center
Mon 11:52:07 AM 33.7808 -85.3783 12° North 168 193 8,000  Level Atlanta Center
Mon 11:53:07 AM 33.8289 -85.3667 11° North 168 193 8,000  Level Atlanta Center
Mon 11:54:07 AM 33.8769 -85.3550 11° North 173 199 8,000  Level Atlanta Center
Mon 11:55:07 AM 33.9231 -85.3431 12° North 173 199 8,000  Level Atlanta Center
Mon 11:56:07 AM 33.9669 -85.3339 10° North 173 199 8,000  Level Atlanta Center
Mon 11:57:07 AM 34.0172 -85.3194 13° North 173 199 8,000  Level Atlanta Center
Mon 11:58:07 AM 34.0653 -85.3103 North 173 199 8,000  Level Atlanta Center
Mon 11:59:07 AM 34.1114 -85.2983 12° North 173 199 8,000  Level Atlanta Center
Mon 12:00:07 PM 34.1594 -85.2864 12° North 177 204 8,000  Level Atlanta Center
Mon 12:01:07 PM 34.2097 -85.2747 11° North 177 204 8,000  Level Atlanta Center
Mon 12:02:07 PM 34.2642 -85.2603 12° North 177 204 8,000  Level Atlanta Center
Mon 12:03:07 PM 34.3142 -85.2483 11° North 178 205 8,000  Level Atlanta Center
Mon 12:04:07 PM 34.3603 -85.2392 North 178 205 8,000  Level Atlanta Center
Mon 12:05:07 PM 34.4022 -85.2272 13° North 173 199 8,000  Level Atlanta Center
Mon 12:06:07 PM 34.4461 -85.2150 13° North 168 193 8,000  Level Atlanta Center
Mon 12:07:07 PM 34.4964 -85.2058 North 168 193 8,000  Level Atlanta Center
Mon 12:08:07 PM 34.5403 -85.1936 13° North 168 193 8,000  Level Atlanta Center
Mon 12:09:07 PM 34.5883 -85.1817 12° North 168 193 8,000  Level Atlanta Center
Mon 12:10:07 PM 34.6364 -85.1672 14° North 168 193 8,000  Level Atlanta Center
Mon 12:11:07 PM 34.6825 -85.1603 North 162 186 8,000  Level Atlanta Center
Mon 12:12:07 PM 34.7306 -85.1483 12° North 162 186 8,000  Level Atlanta Center
Mon 12:14:00 PM 34.8095 -85.1203 16° North  Level FlightAware Approximate
Mon 12:21:00 PM 35.1088 -85.0427 11° North  Level FlightAware Approximate
Mon 12:22:00 PM 35.1516 -85.0325 11° North  Level FlightAware Approximate
Mon 12:23:00 PM 35.1945 -85.0223 11° North  Level FlightAware Approximate
Mon 12:24:00 PM 35.2374 -85.0121 11° North  Level FlightAware Approximate
Mon 12:25:00 PM 35.2803 -85.0019 11° North  Level FlightAware Approximate
Mon 12:26:00 PM 35.3232 -84.9916 11° North  Level FlightAware Approximate
Mon 12:26:19 PM 35.4039 -84.9842 11° North 179 206 8,000  Level Atlanta Center
Mon 12:27:00 PM 35.3660 -84.9814 11° North  Level FlightAware Approximate
Mon 12:27:19 PM 35.4478 -84.9744 10° North 173 199 8,000  Level Atlanta Center
Mon 12:28:00 PM 35.4089 -84.9712 11° North  Level FlightAware Approximate
Mon 12:28:19 PM 35.4917 -84.9622 13° North 161 185 8,000  Level Atlanta Center
Mon 12:29:00 PM 35.4518 -84.9609 11° North  Level FlightAware Approximate
Mon 12:29:19 PM 35.5375 -84.9497 13° North 161 185 8,000  Level Atlanta Center
Mon 12:30:00 PM 35.4947 -84.9506 11° North  Level FlightAware Approximate
Mon 12:30:19 PM 35.5814 -84.9400 10° North 161 185 8,000  Level Atlanta Center
Mon 12:31:19 PM 35.6294 -84.9278 12° North 161 185 8,000  Level Atlanta Center
Mon 12:32:19 PM 35.6733 -84.9156 13° North 161 185 8,000  Level Atlanta Center
Mon 12:33:19 PM 35.7194 -84.9058 10° North 161 185 8,000  Level Atlanta Center
Mon 12:34:19 PM 35.7653 -84.8936 12° North 161 185 8,000  Level Atlanta Center
Mon 12:35:19 PM 35.8114 -84.8811 12° North 161 185 8,000  Level Atlanta Center
Mon 12:36:19 PM 35.8572 -84.8714 10° North 161 185 8,000  Level Atlanta Center
Mon 12:37:19 PM 35.9033 -84.8592 12° North 161 185 8,000  Level Atlanta Center
Mon 12:38:19 PM 35.9472 -84.8492 10° North 161 185 8,000  Level Atlanta Center
Mon 12:39:19 PM 35.9931 -84.8369 12° North 161 185 8,000  Level Atlanta Center
Mon 12:41:02 PM 36.0719 -84.8156 12° North 164 189 8,000  Level Indianapolis Center
Mon 12:42:04 PM 36.1167 -84.8047 11° North 164 189 8,000  Level Indianapolis Center
Mon 12:43:06 PM 36.1625 -84.7933 11° North 167 192 8,000  Level Indianapolis Center
Mon 12:44:07 PM 36.2081 -84.7814 12° North 168 193 8,000  Level Indianapolis Center
Mon 12:45:09 PM 36.2633 -84.7675 11° North 169 194 8,000  Level Indianapolis Center
Mon 12:46:11 PM 36.3092 -84.7600 North 166 191 8,000  Level Indianapolis Center
Mon 12:47:13 PM 36.3561 -84.7589 North 167 192 8,000  Level Indianapolis Center
Mon 12:48:15 PM 36.4031 -84.7583 North 168 193 8,000 242 Level Indianapolis Center
Mon 12:49:17 PM 36.4450 -84.7547 North 158 182 8,500 484 Climbing Indianapolis Center
Mon 12:50:19 PM 36.4833 -84.7425 14° North 145 167 9,000 242 Climbing Indianapolis Center
Mon 12:51:21 PM 36.5331 -84.7297 12° North 150 173 9,000  Level Indianapolis Center
Mon 12:52:23 PM 36.5769 -84.7175 13° North 160 184 9,000  Level Indianapolis Center
Mon 12:53:25 PM 36.6211 -84.7050 13° North 162 186 9,000  Level Indianapolis Center
Mon 12:54:27 PM 36.6664 -84.6933 12° North 164 189 9,000  Level Indianapolis Center
Mon 12:55:29 PM 36.7097 -84.6806 13° North 162 186 9,000  Level Indianapolis Center
Mon 12:56:30 PM 36.7550 -84.6697 11° North 165 190 9,000  Level Indianapolis Center
Mon 12:57:32 PM 36.7997 -84.6581 12° North 165 190 9,000  Level Indianapolis Center
Mon 12:58:34 PM 36.8536 -84.6422 13° North 164 189 9,000  Level Indianapolis Center
Mon 12:59:36 PM 36.8989 -84.6322 10° North 165 190 9,000  Level Indianapolis Center
Mon 01:00:38 PM 36.9433 -84.6189 13° North 164 189 9,000  Level Indianapolis Center
Mon 01:01:40 PM 36.9883 -84.6067 12° North 164 189 9,000  Level Indianapolis Center
Mon 01:02:42 PM 37.0339 -84.5942 12° North 166 191 9,000  Level Indianapolis Center
Mon 01:03:44 PM 37.0817 -84.5808 13° North 166 191 9,000  Level Indianapolis Center
Mon 01:04:45 PM 37.1269 -84.5692 12° North 165 190 9,000  Level Indianapolis Center
Mon 01:05:47 PM 37.1717 -84.5569 12° North 164 189 9,000  Level Indianapolis Center
Mon 01:06:49 PM 37.2169 -84.5453 12° North 165 190 9,000  Level Indianapolis Center
Mon 01:07:51 PM 37.2683 -84.5300 13° North 163 188 9,000  Level Indianapolis Center
Mon 01:08:53 PM 37.3133 -84.5189 11° North 164 189 9,000  Level Indianapolis Center
Mon 01:09:54 PM 37.3583 -84.5069 12° North 165 190 9,000  Level Indianapolis Center
Mon 01:10:56 PM 37.4033 -84.4956 11° North 165 190 9,000  Level Indianapolis Center
Mon 01:11:58 PM 37.4475 -84.4825 13° North 163 188 9,000  Level Indianapolis Center
Mon 01:13:00 PM 37.4925 -84.4703 12° North 164 189 9,000  Level Indianapolis Center
Mon 01:14:02 PM 37.5450 -84.4564 12° North 165 190 9,000  Level Indianapolis Center
Mon 01:15:03 PM 37.5897 -84.4428 14° North 165 190 9,000  Level Indianapolis Center
Mon 01:16:05 PM 37.6350 -84.4325 10° North 165 190 9,000  Level Indianapolis Center
Mon 01:17:07 PM 37.6797 -84.4189 14° North 165 190 9,000  Level Indianapolis Center
Mon 01:18:09 PM 37.7247 -84.4064 12° North 165 190 9,000  Level Indianapolis Center
Mon 01:19:11 PM 37.7697 -84.3919 14° North 165 190 9,000  Level Indianapolis Center
Mon 01:20:13 PM 37.8144 -84.3800 12° North 165 190 9,000  Level Indianapolis Center
Mon 01:21:14 PM 37.8675 -84.3672 11° North 165 190 9,000  Level Indianapolis Center
Mon 01:22:16 PM 37.9125 -84.3550 12° North 164 189 9,000  Level Indianapolis Center
Mon 01:23:18 PM 37.9581 -84.3422 12° North 167 192 9,000  Level Indianapolis Center
Mon 01:24:20 PM 38.0036 -84.3289 13° North 167 192 9,000  Level Indianapolis Center
Mon 01:25:21 PM 38.0497 -84.3172 11° North 169 194 9,000  Level Indianapolis Center
Mon 01:26:23 PM 38.0953 -84.3039 13° North 168 193 9,000  Level Indianapolis Center
Mon 01:27:25 PM 38.1497 -84.2892 12° North 170 196 9,000  Level Indianapolis Center
Mon 01:28:27 PM 38.1953 -84.2761 13° North 169 194 9,000  Level Indianapolis Center
Mon 01:29:28 PM 38.2414 -84.2633 12° North 168 193 9,000  Level Indianapolis Center
Mon 01:30:30 PM 38.2875 -84.2506 12° North 169 194 9,000  Level Indianapolis Center
Mon 01:31:32 PM 38.3331 -84.2369 13° North 168 193 9,000  Level Indianapolis Center
Mon 01:32:34 PM 38.3789 -84.2253 11° North 169 194 9,000  Level Indianapolis Center
Mon 01:33:36 PM 38.4242 -84.2106 14° North 168 193 9,000  Level Indianapolis Center
Mon 01:34:37 PM 38.4781 -84.1961 12° North 168 193 9,000  Level Indianapolis Center
Mon 01:35:39 PM 38.5236 -84.1864 North 168 193 9,000  Level Indianapolis Center
Mon 01:36:41 PM 38.5700 -84.1894 357° North 171 197 9,000  Level Indianapolis Center
Mon 01:37:43 PM 38.6158 -84.1922 357° North 166 191 9,000  Level Indianapolis Center
Mon 01:38:44 PM 38.6636 -84.1936 359° North 165 190 9,000 -49 Level Indianapolis Center
Mon 01:39:46 PM 38.7097 -84.1933 360° North 164 189 8,900 -242 Descending Indianapolis Center
Mon 01:40:48 PM 38.7581 -84.1961 357° North 171 197 8,500 -387 Descending Indianapolis Center
Mon 01:41:50 PM 38.8089 -84.1994 357° North 179 206 8,100 -435 Descending Indianapolis Center
Mon 01:42:52 PM 38.8589 -84.2061 354° North 180 207 7,600 -439 Descending Indianapolis Center
Mon 01:43:53 PM 38.9164 -84.2156 353° North 178 205 7,200 -341 Descending Indianapolis Center
Mon 01:44:55 PM 38.9639 -84.2269 349° North 173 199 6,900 -339 Descending Indianapolis Center
Mon 01:45:57 PM 39.0119 -84.2361 352° North 172 198 6,500 -435 Descending Indianapolis Center
Mon 01:46:59 PM 39.0589 -84.2444 352° North 170 196 6,000 -435 Descending Indianapolis Center
Mon 01:48:01 PM 39.1056 -84.2547 350° North 168 193 5,600 -532 Descending Indianapolis Center
Mon 01:49:03 PM 39.1531 -84.2661 349° North 170 196 4,900 -488 Descending Indianapolis Center
Mon 01:50:04 PM 39.1989 -84.2747 352° North 168 193 4,600 -390 Descending Indianapolis Center
Mon 01:51:06 PM 39.2433 -84.2836 351° North 165 190 4,100 -339 Descending Indianapolis Center
Mon 01:52:08 PM 39.2864 -84.2914 352° North 160 184 3,900 -339 Descending Indianapolis Center
Mon 01:53:10 PM 39.3364 -84.3017 351° North 156 180 3,400 -339 Descending Indianapolis Center
Mon 01:54:12 PM 39.3767 -84.3106 350° North 152 175 3,200 -97 Descending Indianapolis Center
Mon 01:55:14 PM 39.4111 -84.3175 351° North 140 161 3,200  Level Indianapolis Center
Mon 01:56:16 PM 39.4428 -84.3006 22° Northeast 139 160 3,200  Level Indianapolis Center
Mon 01:57:18 PM 39.4778 -84.2839 20° North 135 155 3,200 -387 Level Indianapolis Center
Mon 01:58:20 PM 39.5125 -84.2658 22° Northeast 134 154 2,400 -683 Descending Indianapolis Center
Mon 01:59:21 PM 39.5456 -84.2467 24° Northeast 132 152 1,800 -590 Descending Indianapolis Center
Mon 02:02:00 PM 39.5833 -84.2167 North  Level FlightAware Approximate
Mon 02:09:00 PM 39.5890 -84.2249 North  Level Estimated

Login

Don't have an account? Register now (free) for customized features, flight alerts, and more!